Lubbock Preston Smith International Airport

Date: 2024-06-11 07:53:00Z

Type: METAR

Weather: Thunderstorms

Winds: 330° at 7 kts

Visibility: 10+

Ceiling (AGL FT): Clouds SCATTERED at 800, BROKEN at 1500, OVERCAST at 3000, BROKEN at 25000

RAW METAR: KLBB 110753Z 33007KT 10SM TS SCT008 BKN015CB OVC030 18/17 A2998 RMK AO2 RAE46 SLP109 OCNL LTGICCG NE-SE-S TS NE-SE-S MOV E P0047 T01830172 $

project-image